Time;durP1;ratioP1;P1;durP2;ratioP2;P2;SDS_P1;SDS_P2;PMS_P1;PMS_P2;Temp;Humidity;BMP_temperature;BMP_pressure;BME280_temperature;BME280_humidity;BME280_pressure;Samples;Min_cycle;Max_cycle;Signal;HPM_P1;HPM_P2
2023/01/04 00:00:04;;;;;;;;;3.50;3.50;;;;;6.64;75.09;101987.53;5041480;28;45529;-83
2023/01/04 00:02:30;;;;;;;;;2.00;2.00;;;;;6.61;75.22;101980.44;5039288;28;45549;-83
2023/01/04 00:04:55;;;;;;;;;1.00;1.00;;;;;6.60;75.25;101975.16;5043904;28;46005;-84
2023/01/04 00:07:21;;;;;;;;;2.75;2.00;;;;;6.56;74.73;101974.03;5041933;28;45751;-84
2023/01/04 00:09:47;;;;;;;;;2.25;1.00;;;;;6.55;75.35;101980.03;5039895;28;45522;-75
2023/01/04 00:12:12;;;;;;;;;1.75;1.50;;;;;6.51;75.55;101970.22;5041653;28;45487;-82
2023/01/04 00:14:38;;;;;;;;;6.00;5.50;;;;;6.46;75.84;101982.88;5041330;28;45596;-76
2023/01/04 00:17:03;;;;;;;;;4.25;3.75;;;;;6.39;76.77;101983.25;5036327;28;45809;-83
2023/01/04 00:19:29;;;;;;;;;5.00;3.00;;;;;6.32;77.59;101988.78;5042311;28;45565;-81
2023/01/04 00:21:54;;;;;;;;;6.00;5.00;;;;;6.28;76.93;101982.47;5039276;28;45866;-82
2023/01/04 00:24:20;;;;;;;;;4.50;4.50;;;;;6.26;77.37;101989.25;5042882;28;45719;-84
2023/01/04 00:26:46;;;;;;;;;5.00;5.00;;;;;6.12;77.47;101966.63;5040726;28;46131;-83
2023/01/04 00:29:12;;;;;;;;;5.00;3.00;;;;;6.28;77.17;101994.56;5042739;28;45525;-83
2023/01/04 00:31:38;;;;;;;;;3.00;2.25;;;;;6.26;77.04;101990.97;5038904;28;45450;-82
2023/01/04 00:34:04;;;;;;;;;4.50;4.00;;;;;6.05;76.55;101946.22;5043223;28;45391;-80
2023/01/04 00:36:32;;;;;;;;;6.75;5.75;;;;;6.31;76.22;102002.59;5041318;28;45526;-83
2023/01/04 00:39:09;;;;;;;;;6.00;6.00;;;;;6.31;76.10;102002.59;5044290;28;45309;-84
2023/01/04 00:41:43;;;;;;;;;7.75;7.75;;;;;6.29;76.10;101999.88;5041486;28;45630;-85
2023/01/04 00:44:10;;;;;;;;;6.25;6.25;;;;;6.32;76.32;101999.19;5040857;28;45438;-83
2023/01/04 00:46:36;;;;;;;;;8.50;6.50;;;;;6.31;76.51;102000.00;5037579;28;45402;-81
2023/01/04 00:49:03;;;;;;;;;7.00;6.75;;;;;6.30;75.93;102004.25;5042495;28;45648;-84
2023/01/04 00:51:29;;;;;;;;;8.50;8.50;;;;;6.30;76.16;102006.84;5042254;28;45427;-84
2023/01/04 00:53:56;;;;;;;;;1.50;1.50;;;;;6.31;75.84;102005.19;5041524;28;45844;-83
2023/01/04 00:56:22;;;;;;;;;5.00;5.00;;;;;6.32;75.81;102002.66;5038354;28;46006;-80
2023/01/04 00:58:47;;;;;;;;;2.00;2.00;;;;;6.32;75.96;102005.25;5041436;28;45740;-83
2023/01/04 01:01:13;;;;;;;;;1.75;1.75;;;;;6.32;75.87;102001.78;5046420;28;45359;-68
2023/01/04 01:03:39;;;;;;;;;0.00;0.00;;;;;6.28;75.62;102005.84;5055911;28;45411;-82
2023/01/04 01:06:06;;;;;;;;;1.00;1.00;;;;;6.25;76.45;101999.56;5044629;28;45479;-84
2023/01/04 01:08:32;;;;;;;;;1.00;1.00;;;;;6.26;76.22;102002.25;5054371;28;45532;-77
2023/01/04 01:11:07;;;;;;;;;0.50;0.50;;;;;6.27;76.77;102000.56;5049291;28;46005;-82
2023/01/04 01:13:33;;;;;;;;;1.00;1.00;;;;;6.29;76.63;102006.75;5052359;28;45425;-84
2023/01/04 01:16:07;;;;;;;;;0.75;0.00;;;;;6.30;76.78;102004.25;5050619;28;46028;-79
2023/01/04 01:18:34;;;;;;;;;1.00;1.00;;;;;6.31;76.95;102006.06;5055907;28;45441;-83
2023/01/04 01:21:04;;;;;;;;;1.00;1.00;;;;;6.10;76.90;101961.34;5047082;28;45403;-85
2023/01/04 01:23:29;;;;;;;;;2.00;1.50;;;;;6.33;76.43;102001.00;5046962;28;45439;-83
2023/01/04 01:26:00;;;;;;;;;1.00;1.00;;;;;6.33;76.09;101993.22;5046719;28;45478;-84
2023/01/04 01:28:26;;;;;;;;;2.00;2.00;;;;;6.24;76.19;101985.66;5050968;28;45372;-83
2023/01/04 01:30:51;;;;;;;;;2.25;1.75;;;;;6.32;75.97;101996.59;5056511;28;45427;-78
2023/01/04 01:33:17;;;;;;;;;1.50;1.50;;;;;6.32;76.49;101994.88;5050600;28;45443;-84
2023/01/04 01:35:42;;;;;;;;;2.00;2.00;;;;;6.32;76.00;101996.59;5045114;28;45917;-85
2023/01/04 01:38:08;;;;;;;;;2.00;2.00;;;;;6.30;76.26;101986.09;5052529;28;45430;-79
2023/01/04 01:40:33;;;;;;;;;0.75;0.75;;;;;6.28;76.48;101992.88;5047004;28;45587;-75
2023/01/04 01:42:59;;;;;;;;;2.00;1.25;;;;;6.27;75.94;101990.19;5056135;28;45558;-85
2023/01/04 01:45:33;;;;;;;;;1.50;1.00;;;;;6.26;75.80;101996.16;5049756;28;45995;-75
2023/01/04 01:48:13;;;;;;;;;1.00;0.00;;;;;6.23;76.19;101995.91;5045986;28;45514;-77
2023/01/04 01:50:52;;;;;;;;;2.00;1.50;;;;;6.15;76.52;102004.09;5047417;28;45501;-81
2023/01/04 01:53:19;;;;;;;;;0.50;0.00;;;;;6.14;76.26;102003.97;5046906;28;45554;-84
2023/01/04 01:55:49;;;;;;;;;1.00;1.00;;;;;6.12;76.08;102006.44;5046567;28;46139;-74
2023/01/04 01:58:24;;;;;;;;;1.50;1.00;;;;;6.10;76.24;102013.22;5055124;28;45383;-84
2023/01/04 02:00:50;;;;;;;;;0.50;0.50;;;;;6.08;76.17;102008.72;5046552;28;45522;-84
2023/01/04 02:03:20;;;;;;;;;1.00;1.00;;;;;6.08;76.42;101999.25;5055581;28;45396;-83
2023/01/04 02:05:49;;;;;;;;;0.75;0.00;;;;;6.08;76.55;102003.53;5050723;28;46238;-84
2023/01/04 02:08:15;;;;;;;;;2.00;1.25;;;;;6.08;76.12;102007.03;5047114;28;45301;-83
2023/01/04 02:10:40;;;;;;;;;1.00;0.25;;;;;5.78;75.50;101954.72;5049540;28;46191;-83
2023/01/04 02:13:14;;;;;;;;;1.25;0.00;;;;;6.03;75.55;102010.06;5044314;28;45326;-72
2023/01/04 02:15:58;;;;;;;;;2.00;2.00;;;;;6.01;75.49;102015.19;5052391;28;46230;-79
2023/01/04 02:18:32;;;;;;;;;1.00;1.00;;;;;6.00;75.60;102015.94;5048673;28;45418;-82
2023/01/04 02:21:25;;;;;;;;;2.00;2.00;;;;;5.97;75.81;102016.66;5051375;28;45506;-84
2023/01/04 02:24:36;;;;;;;;;1.00;1.00;;;;;5.95;75.43;102014.75;5045977;28;45408;-85
2023/01/04 02:27:10;;;;;;;;;2.00;2.00;;;;;5.94;75.23;102018.97;5015668;28;46150;-78
2023/01/04 02:30:17;;;;;;;;;1.50;1.50;;;;;5.92;75.21;102017.94;5048828;28;45474;-81
2023/01/04 02:33:09;;;;;;;;;1.50;1.00;;;;;5.92;75.23;102024.84;5024713;28;45478;-81
2023/01/04 02:35:40;;;;;;;;;0.00;0.00;;;;;5.90;75.71;102023.84;5043707;28;45464;-83
2023/01/04 02:38:24;;;;;;;;;1.00;1.00;;;;;5.89;75.87;102025.53;5045867;28;46047;-84
2023/01/04 02:41:32;;;;;;;;;1.00;1.00;;;;;5.82;75.30;102012.00;5049029;28;45501;-78
2023/01/04 02:47:08;;;;;;;;;0.75;0.75;;;;;5.83;76.48;102024.16;5048096;28;45431;-85
2023/01/04 02:52:20;;;;;;;;;1.00;1.00;;;;;5.82;76.47;102020.69;5053028;28;45530;-84
2023/01/04 02:54:49;;;;;;;;;1.00;1.00;;;;;5.81;75.81;102020.56;5050216;28;45510;-80
2023/01/04 02:57:38;;;;;;;;;1.00;1.00;;;;;5.82;75.55;102017.19;5050186;28;45483;-73
2023/01/04 03:00:27;;;;;;;;;2.00;1.00;;;;;5.81;75.83;102025.75;5050649;28;45737;-82
2023/01/04 03:06:29;;;;;;;;;3.00;1.75;;;;;5.80;75.65;102016.19;5058315;28;45408;-85
2023/01/04 03:09:27;;;;;;;;;9.75;9.00;;;;;5.78;75.85;102016.06;5051565;28;46241;-85
2023/01/04 03:14:50;;;;;;;;;2.75;2.75;;;;;5.79;75.67;102017.88;5048753;28;45566;-85
2023/01/04 03:17:20;;;;;;;;;1.00;1.00;;;;;5.78;75.90;102013.47;5049071;28;45501;-83
2023/01/04 03:19:55;;;;;;;;;2.75;2.25;;;;;5.75;75.63;102010.66;5054739;28;45430;-82
2023/01/04 03:37:16;;;;;;;;;2.75;2.00;;;;;5.73;75.27;102004.44;5046828;28;45618;-84
2023/01/04 03:49:44;;;;;;;;;2.75;2.75;;;;;5.57;75.75;101992.03;5052345;28;45406;-86
2023/01/04 03:52:12;;;;;;;;;2.50;2.25;;;;;5.56;75.38;101993.75;5051385;28;45414;-85
2023/01/04 03:54:46;;;;;;;;;2.25;2.00;;;;;5.53;76.51;101984.84;5049474;28;45382;-84
2023/01/04 03:57:13;;;;;;;;;0.50;0.50;;;;;5.44;76.24;101991.97;5057059;28;46281;-85
2023/01/04 03:59:44;;;;;;;;;2.00;1.00;;;;;5.40;76.64;101995.09;5048954;28;45432;-81
2023/01/04 04:02:12;;;;;;;;;1.00;1.00;;;;;5.38;76.40;101992.41;5051857;28;45383;-86
2023/01/04 04:10:08;;;;;;;;;0.00;0.00;;;;;5.37;77.04;101983.72;5057382;28;45453;-86
2023/01/04 04:12:33;;;;;;;;;1.00;1.00;;;;;5.37;76.77;101986.31;5057665;28;45407;-85
2023/01/04 04:14:59;;;;;;;;;2.00;1.75;;;;;5.40;76.44;101985.63;5058026;28;45677;-78
2023/01/04 04:17:24;;;;;;;;;1.75;1.75;;;;;5.37;76.02;101980.22;5057179;28;46028;-80
2023/01/04 04:19:50;;;;;;;;;2.00;2.00;;;;;5.40;75.57;101992.53;5055516;28;45419;-70
2023/01/04 04:22:15;;;;;;;;;2.75;2.75;;;;;5.36;75.80;101992.28;5058021;28;45523;-86
2023/01/04 04:24:41;;;;;;;;;1.00;1.00;;;;;5.38;75.97;101992.41;5053868;28;45450;-87
2023/01/04 04:27:06;;;;;;;;;1.00;1.00;;;;;5.32;75.50;101979.00;5057078;28;45878;-86
2023/01/04 04:29:32;;;;;;;;;2.00;2.00;;;;;5.28;74.99;101989.91;5056874;28;45573;-87
2023/01/04 04:31:57;;;;;;;;;0.25;0.25;;;;;5.28;75.47;101990.81;5057685;28;45412;-86
2023/01/04 04:34:22;;;;;;;;;2.00;1.00;;;;;5.33;75.36;101988.56;5058064;28;45373;-86
2023/01/04 04:36:48;;;;;;;;;2.00;1.00;;;;;5.36;75.12;101991.38;5057930;28;45912;-82
2023/01/04 04:39:14;;;;;;;;;1.00;1.00;;;;;5.35;75.00;101987.91;5037016;28;45506;-85
2023/01/04 04:41:40;;;;;;;;;0.75;0.75;;;;;5.37;75.34;101985.41;5047517;28;44770;-85
2023/01/04 04:44:12;;;;;;;;;0.50;0.50;;;;;5.36;76.02;101984.50;5043005;28;45793;-85
2023/01/04 04:46:38;;;;;;;;;1.00;1.00;;;;;5.32;75.47;101966.03;5041197;28;46284;-85
2023/01/04 04:49:05;;;;;;;;;0.00;0.00;;;;;5.16;75.43;101938.97;5056569;28;45387;-77
2023/01/04 04:51:31;;;;;;;;;2.00;0.75;;;;;5.22;75.04;101948.91;5057298;28;45366;-86
2023/01/04 04:53:57;;;;;;;;;1.25;1.00;;;;;5.42;75.11;101984.06;5057340;28;47966;-86
2023/01/04 04:56:22;;;;;;;;;0.00;0.00;;;;;5.46;74.34;101980.00;5057398;28;45908;-81
2023/01/04 04:58:48;;;;;;;;;0.00;0.00;;;;;5.48;74.38;101983.63;5058079;28;45354;-86
2023/01/04 05:01:14;;;;;;;;;3.00;2.00;;;;;5.48;74.57;101983.63;5057915;28;45337;-86
2023/01/04 05:03:39;;;;;;;;;5.00;3.00;;;;;5.48;74.73;101976.72;5056472;28;45517;-81
2023/01/04 05:06:05;;;;;;;;;0.00;0.00;;;;;5.49;74.63;101982.81;5056100;28;45977;-86
2023/01/04 05:08:31;;;;;;;;;1.00;1.00;;;;;5.30;73.75;101942.59;5056027;28;45467;-74
2023/01/04 05:10:57;;;;;;;;;1.00;1.00;;;;;5.51;73.75;101978.63;5055982;28;45345;-84
2023/01/04 05:13:22;;;;;;;;;6.50;5.75;;;;;5.51;73.51;101976.97;5056284;28;45808;-69
2023/01/04 05:15:51;;;;;;;;;3.00;3.00;;;;;5.53;73.51;101974.47;5054804;28;45365;-84
2023/01/04 05:18:19;;;;;;;;;1.00;1.00;;;;;5.52;73.13;101985.63;5051164;28;45430;-85
2023/01/04 05:20:45;;;;;;;;;0.00;0.00;;;;;5.53;73.06;101983.16;5054907;28;45387;-84
2023/01/04 05:23:13;;;;;;;;;2.00;1.00;;;;;5.53;73.18;101979.66;5055310;28;46462;-85
2023/01/04 05:25:39;;;;;;;;;0.50;0.00;;;;;5.52;73.20;101975.28;5051782;28;45636;-85
2023/01/04 05:28:06;;;;;;;;;2.00;1.00;;;;;5.53;72.94;101980.56;5055691;28;45535;-84
2023/01/04 05:30:50;;;;;;;;;0.75;0.00;;;;;5.50;73.11;101976.84;5055635;28;45418;-76
2023/01/04 05:33:33;;;;;;;;;1.00;1.00;;;;;5.40;72.79;101961.41;5055719;28;45533;-80
2023/01/04 05:36:02;;;;;;;;;2.50;1.75;;;;;5.51;73.18;101984.75;5052432;28;45648;-77
2023/01/04 05:38:27;;;;;;;;;2.00;2.00;;;;;5.47;72.73;101992.16;5054354;28;45490;-75
2023/01/04 05:40:54;;;;;;;;;3.00;2.00;;;;;5.45;73.19;102006.69;5054679;28;45512;-77
2023/01/04 05:43:21;;;;;;;;;1.00;1.00;;;;;5.41;72.71;102005.56;5055533;28;45661;-76
2023/01/04 05:45:49;;;;;;;;;1.00;1.00;;;;;5.41;72.80;101996.91;5055198;28;46295;-83
2023/01/04 05:48:15;;;;;;;;;0.25;0.00;;;;;5.42;72.95;102003.91;5055193;28;45524;-85
2023/01/04 05:50:41;;;;;;;;;1.00;0.00;;;;;5.43;72.59;102003.09;5054953;28;45596;-84
2023/01/04 05:53:07;;;;;;;;;0.00;0.00;;;;;5.46;72.71;102013.69;5055340;28;45421;-86
2023/01/04 05:55:33;;;;;;;;;2.00;1.25;;;;;5.46;72.75;102011.13;5054174;28;45971;-74
2023/01/04 05:57:58;;;;;;;;;0.75;0.75;;;;;5.46;72.71;102013.69;5054553;28;45615;-87
2023/01/04 06:00:24;;;;;;;;;1.00;0.00;;;;;5.45;72.99;102019.66;5054168;28;45681;-86
2023/01/04 06:02:51;;;;;;;;;1.00;1.00;;;;;5.43;72.94;102023.81;5054758;28;45378;-82
2023/01/04 06:05:17;;;;;;;;;5.50;5.50;;;;;5.42;72.32;102024.63;5052087;28;46617;-84
2023/01/04 06:07:43;;;;;;;;;1.00;0.00;;;;;5.42;72.41;102027.22;5054272;28;45531;-83
2023/01/04 06:10:10;;;;;;;;;0.00;0.00;;;;;5.42;71.62;102016.84;5054253;28;45529;-80
2023/01/04 06:12:36;;;;;;;;;1.00;1.00;;;;;5.44;72.03;102023.06;5054218;28;45807;-80
2023/01/04 06:15:02;;;;;;;;;5.25;5.00;;;;;5.36;71.72;102009.53;5054262;28;45437;-87
2023/01/04 06:17:28;;;;;;;;;2.00;2.00;;;;;5.45;71.92;102030.94;5053547;28;45482;-80
2023/01/04 06:19:53;;;;;;;;;1.50;1.50;;;;;5.46;71.96;102034.44;5054509;28;45228;-78
2023/01/04 06:22:19;;;;;;;;;2.00;2.00;;;;;5.44;71.83;102034.31;5058471;28;45701;-86
2023/01/04 06:24:45;;;;;;;;;103.50;86.00;;;;;5.34;71.67;102029.25;5057605;28;45835;-86
2023/01/04 06:27:10;;;;;;;;;179.75;141.00;;;;;5.41;72.18;102040.94;5057611;28;45615;-85
2023/01/04 06:29:36;;;;;;;;;22.50;19.00;;;;;5.36;72.17;102036.34;5057423;28;45394;-86
2023/01/04 06:32:02;;;;;;;;;5.33;4.33;;;;;5.31;71.89;102042.88;5058156;28;45559;-76
2023/01/04 06:34:27;;;;;;;;;87.25;71.50;;;;;5.28;71.91;102047.81;5057640;28;46089;-74
2023/01/04 06:36:53;;;;;;;;;62.75;51.25;;;;;5.27;71.87;102051.22;5053697;28;45687;-67
2023/01/04 06:39:18;;;;;;;;;47.75;39.50;;;;;5.28;71.93;102045.22;5057671;28;45394;-85
2023/01/04 06:41:44;;;;;;;;;111.67;96.67;;;;;5.03;71.35;102000.13;5057235;28;45410;-86
2023/01/04 06:44:09;;;;;;;;;25.25;24.00;;;;;5.31;71.83;102049.72;5057340;28;45516;-80
2023/01/04 06:46:35;;;;;;;;;23.75;23.00;;;;;5.31;71.71;102041.94;5055053;28;45456;-78
2023/01/04 06:49:00;;;;;;;;;22.75;21.25;;;;;5.31;71.75;102053.25;5056754;28;45817;-73
2023/01/04 06:51:26;;;;;;;;;10.00;10.00;;;;;5.32;71.54;102048.97;5054431;28;45334;-80
2023/01/04 06:53:51;;;;;;;;;5.00;5.00;;;;;5.32;72.23;102056.72;5057149;28;46018;-67
2023/01/04 06:56:17;;;;;;;;;5.75;5.75;;;;;5.30;72.17;102059.19;5057190;28;45520;-67
2023/01/04 06:58:42;;;;;;;;;9.00;8.75;;;;;5.28;72.07;102058.19;5057672;28;45347;-78
2023/01/04 07:01:08;;;;;;;;;28.50;24.75;;;;;5.27;71.94;102061.56;5057845;28;45585;-79
2023/01/04 07:03:33;;;;;;;;;26.50;20.50;;;;;5.26;72.07;102058.84;5056269;28;46087;-67
2023/01/04 07:06:03;;;;;;;;;18.00;15.00;;;;;5.24;71.72;102057.84;5056918;28;45536;-83
2023/01/04 07:08:29;;;;;;;;;32.00;25.00;;;;;5.08;71.19;102032.47;5057384;28;45521;-80
2023/01/04 07:10:54;;;;;;;;;12.50;10.00;;;;;5.20;71.77;102064.47;5056495;28;45861;-67
2023/01/04 07:13:19;;;;;;;;;10.75;9.25;;;;;5.17;71.95;102054.78;5056738;28;46144;-80
2023/01/04 07:15:45;;;;;;;;;3.00;2.00;;;;;5.15;71.67;102060.63;5056753;28;45491;-68
2023/01/04 07:18:10;;;;;;;;;17.25;15.75;;;;;5.11;71.24;102056.91;5054175;28;45593;-85
2023/01/04 07:20:37;;;;;;;;;7.00;7.00;;;;;5.10;71.06;102069.75;5057264;28;45457;-73
2023/01/04 07:23:04;;;;;;;;;23.25;21.50;;;;;5.08;71.57;102060.97;5056001;28;45374;-75
2023/01/04 07:25:30;;;;;;;;;14.00;13.75;;;;;5.09;71.43;102067.91;5057150;28;45446;-68
2023/01/04 07:27:55;;;;;;;;;13.00;13.00;;;;;5.10;71.22;102067.16;5057635;28;45530;-78
2023/01/04 07:30:22;;;;;;;;;19.50;15.50;;;;;5.12;71.67;102069.06;5058216;28;45474;-69
2023/01/04 07:32:50;;;;;;;;;11.25;10.50;;;;;5.09;71.42;102060.16;5055562;28;46384;-76
2023/01/04 07:35:16;;;;;;;;;4.50;4.50;;;;;5.00;71.87;102043.94;5054835;28;45616;-72
2023/01/04 07:37:42;;;;;;;;;3.00;3.00;;;;;5.13;71.78;102055.34;5057707;28;45468;-83
2023/01/04 07:40:09;;;;;;;;;2.00;2.00;;;;;5.03;71.24;102047.63;5058034;28;45315;-73
2023/01/04 07:42:35;;;;;;;;;2.00;2.00;;;;;5.12;71.60;102058.72;5055993;28;46686;-70
2023/01/04 07:45:02;;;;;;;;;20.50;19.50;;;;;5.18;71.05;102060.88;5057226;28;45649;-83
2023/01/04 07:47:27;;;;;;;;;8.00;7.00;;;;;4.91;71.32;102007.84;5057033;28;45785;-78
2023/01/04 07:49:53;;;;;;;;;9.00;7.00;;;;;5.19;71.50;102062.66;5057445;28;45454;-74
2023/01/04 07:52:19;;;;;;;;;4.00;4.00;;;;;5.25;71.24;102065.75;5056700;28;45510;-81
2023/01/04 07:54:44;;;;;;;;;13.75;12.25;;;;;5.29;71.03;102066.84;5057388;28;45590;-72
2023/01/04 07:57:10;;;;;;;;;5.25;5.25;;;;;5.31;70.70;102066.19;5057350;28;45547;-82
2023/01/04 07:59:35;;;;;;;;;10.25;9.00;;;;;5.33;70.70;102072.41;5057731;28;45486;-74
2023/01/04 08:02:01;;;;;;;;;20.00;14.75;;;;;5.35;70.69;102078.59;5057148;28;45427;-85
2023/01/04 08:04:26;;;;;;;;;38.00;32.25;;;;;5.40;70.30;102083.22;5057605;28;45507;-84
2023/01/04 08:06:52;;;;;;;;;28.25;24.25;;;;;5.43;70.20;102081.78;5057979;28;45439;-72
2023/01/04 08:09:17;;;;;;;;;31.25;22.25;;;;;5.47;70.08;102089.00;5057329;28;45467;-74
2023/01/04 08:11:44;;;;;;;;;19.50;14.50;;;;;5.52;69.94;102089.31;5056449;28;45440;-84
2023/01/04 08:14:10;;;;;;;;;18.50;18.00;;;;;5.55;69.85;102094.72;5057695;28;45311;-75
2023/01/04 08:16:39;;;;;;;;;5.00;5.00;;;;;5.58;70.20;102100.16;5057456;28;45527;-73
2023/01/04 08:19:10;;;;;;;;;5.75;3.25;;;;;5.63;69.54;102096.22;5057404;28;45879;-76
2023/01/04 08:21:36;;;;;;;;;2.00;2.00;;;;;5.67;68.90;102093.06;5056271;28;46173;-82
2023/01/04 08:24:03;;;;;;;;;6.00;5.50;;;;;5.69;68.70;102091.50;5057263;28;45450;-84
2023/01/04 08:26:29;;;;;;;;;3.50;2.75;;;;;5.77;68.16;102092.97;5057735;28;45452;-84
2023/01/04 08:28:55;;;;;;;;;6.75;3.00;;;;;5.82;68.21;102093.28;5057812;28;45533;-77
2023/01/04 08:31:26;;;;;;;;;13.50;12.00;;;;;5.87;67.67;102097.13;5056835;28;46097;-83
2023/01/04 08:33:52;;;;;;;;;10.25;9.75;;;;;5.93;68.16;102107.06;5057064;28;45178;-84
2023/01/04 08:36:25;;;;;;;;;3.00;3.00;;;;;5.93;68.24;102107.06;5057071;28;45631;-84
2023/01/04 08:38:54;;;;;;;;;50.50;41.00;;;;;5.97;68.15;102104.84;5057037;28;45621;-71
2023/01/04 08:41:20;;;;;;;;;17.50;15.25;;;;;6.04;67.59;102110.47;5057286;28;45449;-84
2023/01/04 08:43:46;;;;;;;;;10.25;8.25;;;;;6.11;67.24;102102.34;5055525;28;45482;-81
2023/01/04 08:46:13;;;;;;;;;5.25;5.25;;;;;6.20;65.93;102104.72;5056755;28;45442;-83
2023/01/04 08:48:39;;;;;;;;;6.00;5.00;;;;;6.24;66.10;102105.03;5056092;28;45571;-83
2023/01/04 08:51:11;;;;;;;;;6.75;6.00;;;;;6.32;66.06;102110.78;5056713;28;45991;-79
2023/01/04 08:53:37;;;;;;;;;6.50;5.00;;;;;6.31;66.22;102098.59;5041334;28;45318;-83
2023/01/04 08:56:02;;;;;;;;;15.25;12.25;;;;;6.46;66.14;102115.25;5057023;28;45396;-79
2023/01/04 08:58:30;;;;;;;;;24.00;23.25;;;;;6.50;65.13;102113.78;5057809;28;45407;-70
2023/01/04 09:01:04;;;;;;;;;12.00;8.50;;;;;6.53;64.17;102117.53;5055992;28;45480;-69
2023/01/04 09:03:30;;;;;;;;;15.25;11.00;;;;;6.61;65.15;102122.38;5053875;28;45451;-68
2023/01/04 09:06:06;;;;;;;;;20.25;16.00;;;;;6.68;65.13;102117.69;5056864;28;45433;-74
2023/01/04 09:08:33;;;;;;;;;15.00;11.00;;;;;6.68;63.36;102101.22;5057242;28;45569;-84
2023/01/04 09:11:05;;;;;;;;;3.50;2.00;;;;;6.92;62.48;102118.53;5056216;28;45380;-80
2023/01/04 09:13:32;;;;;;;;;17.25;15.00;;;;;7.03;63.24;102120.97;5055968;28;45439;-81
2023/01/04 09:16:02;;;;;;;;;31.00;30.00;;;;;7.10;66.25;102128.38;5057860;28;45430;-68
2023/01/04 09:18:28;;;;;;;;;16.00;13.75;;;;;7.22;65.68;102133.53;5056537;28;45335;-68
2023/01/04 09:20:54;;;;;;;;;13.50;11.00;;;;;7.31;64.59;102126.38;5056674;28;45221;-70
2023/01/04 09:23:19;;;;;;;;;8.00;7.00;;;;;7.44;64.61;102128.09;5056233;28;45430;-82
2023/01/04 09:25:45;;;;;;;;;8.00;7.75;;;;;7.53;64.88;102131.34;5056282;28;45316;-83
2023/01/04 09:28:10;;;;;;;;;7.25;7.00;;;;;7.65;64.50;102132.16;5056629;28;45551;-83
2023/01/04 09:30:36;;;;;;;;;22.50;20.25;;;;;8.43;63.88;102133.81;5055728;28;45446;-73
2023/01/04 09:33:01;;;;;;;;;22.25;19.00;;;;;9.68;61.22;102131.03;5055950;28;45537;-77
2023/01/04 09:35:27;;;;;;;;;16.75;13.50;;;;;10.75;58.29;102123.19;5057551;28;45427;-81
2023/01/04 09:37:53;;;;;;;;;10.50;7.25;;;;;11.62;52.35;102118.13;5055864;28;45473;-68
2023/01/04 09:40:23;;;;;;;;;16.75;16.00;;;;;12.12;53.66;102097.13;5056207;28;46047;-81
2023/01/04 09:42:51;;;;;;;;;12.50;11.50;;;;;12.73;50.43;102104.38;5056031;28;45637;-83
2023/01/04 09:45:18;;;;;;;;;10.75;9.75;;;;;13.10;51.73;102121.75;5056590;28;45470;-75
2023/01/04 09:47:46;;;;;;;;;86.67;70.67;;;;;13.32;49.88;102114.88;5054762;28;45383;-79
2023/01/04 09:50:33;;;;;;;;;16.00;12.75;;;;;13.65;51.61;102115.44;5056136;28;46213;-81
2023/01/04 09:53:15;;;;;;;;;5.75;5.00;;;;;13.98;49.32;102111.53;5056056;28;45348;-81
2023/01/04 09:55:49;;;;;;;;;3.67;3.67;;;;;14.16;48.01;102082.47;5055582;28;45478;-81
2023/01/04 09:58:34;;;;;;;;;3.00;3.00;;;;;14.60;46.85;102112.25;5055990;28;45441;-72
2023/01/04 10:01:19;;;;;;;;;55.00;44.50;;;;;14.77;42.99;102116.44;5055694;28;45396;-68
2023/01/04 10:04:28;;;;;;;;;31.25;27.75;;;;;14.84;43.23;102120.19;5055278;28;45552;-77
2023/01/04 10:06:54;;;;;;;;;17.75;16.75;;;;;14.18;42.70;101986.19;4992501;28;46240;-80
2023/01/04 10:09:19;;;;;;;;;24.00;23.25;;;;;14.95;43.10;102107.44;5038683;28;45787;-73
2023/01/04 10:12:04;;;;;;;;;67.50;54.50;;;;;15.05;43.56;102113.09;5055478;28;45481;-73
2023/01/04 10:14:29;;;;;;;;;31.00;29.50;;;;;15.00;43.00;102116.41;5041560;28;45281;-72
2023/01/04 10:17:24;;;;;;;;;22.50;22.50;;;;;14.99;43.94;102119.88;5055421;28;45589;-79
2023/01/04 10:20:15;;;;;;;;;9.50;8.00;;;;;14.97;43.98;102122.44;5054771;28;45423;-83
2023/01/04 10:22:41;;;;;;;;;8.00;7.00;;;;;14.96;44.81;102123.31;5023684;28;45426;-82
2023/01/04 10:25:54;;;;;;;;;6.00;6.00;;;;;15.04;45.05;102119.22;5053989;28;45378;-71
2023/01/04 10:28:19;;;;;;;;;3.67;3.00;;;;;15.11;43.52;102125.59;4993325;28;45699;-72
2023/01/04 10:31:14;;;;;;;;;4.33;4.33;;;;;15.06;43.23;102122.81;5047278;28;45486;-73
2023/01/04 10:33:54;;;;;;;;;8.00;8.00;;;;;15.04;40.24;102118.28;5054656;28;45386;-71
2023/01/04 10:36:25;;;;;;;;;2.00;2.00;;;;;15.02;43.75;102135.78;5055128;28;45505;-75
2023/01/04 10:38:59;;;;;;;;;2.33;2.33;;;;;15.05;43.07;102120.09;5037182;28;45284;-72
2023/01/04 10:41:30;;;;;;;;;2.00;2.00;;;;;14.90;41.79;102092.41;5054801;28;45453;-71
2023/01/04 10:43:59;;;;;;;;;0.00;0.00;;;;;15.05;39.92;102115.72;5055098;28;45526;-73
2023/01/04 10:47:03;;;;;;;;;4.00;2.67;;;;;15.08;39.13;102114.94;5052632;28;45517;-68
2023/01/04 10:49:42;;;;;;;;;5.00;2.33;;;;;15.13;39.41;102110.75;5069008;28;45485;-75
2023/01/04 10:52:18;;;;;;;;;2.00;2.00;;;;;15.03;39.15;102100.72;5055633;28;45511;-68
2023/01/04 10:54:53;;;;;;;;;12.75;12.00;;;;;15.06;40.14;102103.47;5054617;28;45435;-75
2023/01/04 10:57:35;;;;;;;;;2.00;2.00;;;;;15.00;40.43;102100.59;5055117;28;45584;-76
2023/01/04 11:00:06;;;;;;;;;4.00;4.00;;;;;15.16;39.43;102097.72;5054353;28;45398;-74
2023/01/04 11:02:50;;;;;;;;;4.00;2.33;;;;;15.10;39.81;102094.88;5055853;28;45398;-70
2023/01/04 11:05:29;;;;;;;;;1.00;1.00;;;;;15.11;40.60;102091.38;5040927;28;45404;-68
2023/01/04 11:08:00;;;;;;;;;1.00;1.00;;;;;14.96;39.99;102073.31;5056894;28;45435;-68
2023/01/04 11:10:35;;;;;;;;;4.00;2.00;;;;;15.08;40.67;102089.53;5057142;28;45336;-69
2023/01/04 11:13:02;;;;;;;;;3.00;3.00;;;;;15.01;40.49;102076.97;5049308;28;45549;-75
2023/01/04 11:15:29;;;;;;;;;2.00;2.00;;;;;14.87;41.46;102047.53;5068496;28;45343;-71
2023/01/04 11:17:55;;;;;;;;;2.00;2.00;;;;;15.15;42.12;102084.50;5044556;28;45467;-69
2023/01/04 11:20:21;;;;;;;;;2.00;2.00;;;;;15.25;41.84;102083.97;5055185;28;45446;-70
2023/01/04 11:23:02;;;;;;;;;3.00;2.33;;;;;15.27;41.57;102080.53;5058299;28;45435;-70
2023/01/04 11:25:34;;;;;;;;;3.00;2.00;;;;;15.25;41.68;102078.69;5057976;28;47325;-68
2023/01/04 11:28:22;;;;;;;;;1.33;1.00;;;;;15.24;41.88;102062.03;5057714;28;45431;-77
2023/01/04 11:31:13;;;;;;;;;1.00;1.00;;;;;15.38;41.42;102072.13;5044551;28;45442;-77
2023/01/04 11:33:53;;;;;;;;;2.00;2.00;;;;;15.47;41.42;102068.06;5046424;28;45347;-76
2023/01/04 11:36:36;;;;;;;;;3.00;3.00;;;;;15.58;42.09;102060.53;5057811;28;46443;-79
2023/01/04 11:39:16;;;;;;;;;3.67;3.67;;;;;15.70;41.60;102067.97;5057910;28;45348;-81
2023/01/04 11:41:57;;;;;;;;;2.67;2.67;;;;;15.86;42.56;102061.50;5057451;28;45534;-78
2023/01/04 11:44:23;;;;;;;;;3.00;2.00;;;;;16.04;42.81;102056.81;5058267;28;45410;-83
2023/01/04 11:47:16;;;;;;;;;5.00;4.67;;;;;16.18;42.66;102056.34;5057046;28;46154;-81
2023/01/04 11:49:41;;;;;;;;;4.00;4.00;;;;;16.29;41.67;102050.56;5057265;28;45560;-81
2023/01/04 11:52:28;;;;;;;;;2.67;2.67;;;;;16.45;42.37;102053.63;5057391;28;45494;-81
2023/01/04 11:54:53;;;;;;;;;3.00;3.00;;;;;16.57;40.71;102055.75;5057973;28;45490;-81
2023/01/04 11:57:20;;;;;;;;;2.00;2.00;;;;;16.65;40.59;102052.50;5056819;28;46345;-80
2023/01/04 12:00:12;;;;;;;;;2.00;1.00;;;;;16.66;40.66;102046.38;5041314;28;45509;-80
2023/01/04 12:02:38;;;;;;;;;0.00;0.00;;;;;16.59;41.34;102019.75;5058079;28;45526;-80
2023/01/04 12:05:24;;;;;;;;;2.00;1.67;;;;;16.85;41.17;102049.56;5058243;28;45466;-79
2023/01/04 12:07:49;;;;;;;;;2.67;1.00;;;;;16.90;38.72;102042.66;5043914;28;45418;-82
2023/01/04 12:10:25;;;;;;;;;1.00;1.00;;;;;16.89;39.59;102041.78;5057681;28;45411;-82
2023/01/04 12:12:52;;;;;;;;;1.33;1.00;;;;;16.80;39.89;102025.66;5056893;28;45505;-81
2023/01/04 12:15:45;;;;;;;;;1.67;1.67;;;;;16.91;41.07;102033.91;5057173;28;45429;-82
2023/01/04 12:18:25;;;;;;;;;4.00;2.00;;;;;17.00;40.93;102035.91;5056822;28;45395;-81
2023/01/04 12:20:50;;;;;;;;;2.67;2.00;;;;;16.96;40.69;102015.56;5058118;28;45448;-81
2023/01/04 12:23:16;;;;;;;;;2.00;1.33;;;;;17.06;40.58;102028.16;5058014;28;45657;-81